Pueblo Of Acoma, NM (87034)

12:56 PM MDT on August 28, 2016 (GMT -0600)
Grants-Milan Municipal | | Change Station

Elev 6519 ft 35.17 °N, 107.90 °W | Updated 21 minutes ago

Scattered Clouds
Scattered Clouds
67 °F
Feels Like 67 °F
N
6
Wind Variable Wind from East

Today
High -- | Low -- °F
--% Chance of Precip.
Yesterday
High -- | Low -- °F
Precip. -- in
Pressure 30.32 in
Visibility 10.0 miles
Clouds Scattered Clouds 1100 ft
Scattered Clouds 2300 ft
Scattered Clouds 6500 ft
Dew Point 50 °F
Humidity 56%
Rainfall 0.14 in
Snow Depth Not available.
6:40 AM 7:41 PM
Waning Crescent, 14% visible
METAR KGNT 281835Z AUTO 08005KT 10SM VCTS SCT011 SCT023 SCT065 19/10 A3032 RMK AO2 LTG DSNT E W AND NW P0007 T01930102
Pressure 30.32 in
Visibility 10.0 miles
Clouds Scattered Clouds 1100 ft
Scattered Clouds 2300 ft
Scattered Clouds 6500 ft
Dew Point 50 °F
Humidity 56%
Rainfall 0.14 in
Snow Depth Not available.
6:40 AM 7:41 PM
Waning Crescent, 14% visible
METAR KGNT 281835Z AUTO 08005KT 10SM VCTS SCT011 SCT023 SCT065 19/10 A3032 RMK AO2 LTG DSNT E W AND NW P0007 T01930102

10-Day Weather Forecast

Almanac

Astronomy

Aug. 28, 2016 Rise Set
Actual Time
Civil Twilight
Nautical Twilight
Astronomical Twilight
Moon
Length of Visible Light
Length of Day
Tomorrow will be .
, % of the Moon is Illuminated

Today's Extremes

State Highs State Lows

Community

WunderPhotos

Upload Photos

1,935,647 photos uploaded!

WunderBlog® & News

Nearby

Air Quality

  Air Quality AQ Index Pollutant
Not available.

Snow Depth

Station Depth Elevation

Earthquake Activity

City Distance Mag. Time & Date
Minimum magnitude displayed is 2.5.

Coastal Water Temperatures

Place Temperature

Stations

Nearby Weather Stations

Station Location Temp. Windchill Dew Point Humidity Wind Precip. Elev Updated Type
                   

Watches & Warnings

There are currently no watches in effect.